sensor_id;sensor_type;location;lat;lon;timestamp;temperature;humidity
68691;DHT22;55675;49.588;8.640;2023-04-24T00:02:09;13.30;96.90
68691;DHT22;55675;49.588;8.640;2023-04-24T00:04:36;13.30;96.70
68691;DHT22;55675;49.588;8.640;2023-04-24T00:07:05;13.30;96.60
68691;DHT22;55675;49.588;8.640;2023-04-24T00:09:32;13.40;96.50
68691;DHT22;55675;49.588;8.640;2023-04-24T00:11:57;13.40;96.40
68691;DHT22;55675;49.588;8.640;2023-04-24T00:14:23;13.40;96.30
68691;DHT22;55675;49.588;8.640;2023-04-24T00:16:48;13.40;95.90
68691;DHT22;55675;49.588;8.640;2023-04-24T00:19:14;13.40;95.90
68691;DHT22;55675;49.588;8.640;2023-04-24T00:21:39;13.40;96.00
68691;DHT22;55675;49.588;8.640;2023-04-24T00:24:05;13.40;96.00
68691;DHT22;55675;49.588;8.640;2023-04-24T00:26:30;13.40;96.00
68691;DHT22;55675;49.588;8.640;2023-04-24T00:28:56;13.40;95.90
68691;DHT22;55675;49.588;8.640;2023-04-24T00:31:21;13.40;95.90
68691;DHT22;55675;49.588;8.640;2023-04-24T00:33:47;13.40;95.70
68691;DHT22;55675;49.588;8.640;2023-04-24T00:36:12;13.50;95.90
68691;DHT22;55675;49.588;8.640;2023-04-24T00:38:38;13.50;95.80
68691;DHT22;55675;49.588;8.640;2023-04-24T00:41:03;13.50;95.80
68691;DHT22;55675;49.588;8.640;2023-04-24T00:43:29;13.60;95.70
68691;DHT22;55675;49.588;8.640;2023-04-24T00:45:54;13.60;95.30
68691;DHT22;55675;49.588;8.640;2023-04-24T00:48:20;13.60;95.30
68691;DHT22;55675;49.588;8.640;2023-04-24T00:50:45;13.60;95.30
68691;DHT22;55675;49.588;8.640;2023-04-24T00:53:11;13.60;95.20
68691;DHT22;55675;49.588;8.640;2023-04-24T00:55:36;13.70;95.10
68691;DHT22;55675;49.588;8.640;2023-04-24T00:58:02;13.70;95.20
68691;DHT22;55675;49.588;8.640;2023-04-24T01:00:28;13.70;95.20
68691;DHT22;55675;49.588;8.640;2023-04-24T01:02:53;13.70;95.20
68691;DHT22;55675;49.588;8.640;2023-04-24T01:05:20;13.70;95.10
68691;DHT22;55675;49.588;8.640;2023-04-24T01:07:46;13.70;95.20
68691;DHT22;55675;49.588;8.640;2023-04-24T01:10:14;13.70;95.10
68691;DHT22;55675;49.588;8.640;2023-04-24T01:12:40;13.70;95.10
68691;DHT22;55675;49.588;8.640;2023-04-24T01:15:05;13.70;95.10
68691;DHT22;55675;49.588;8.640;2023-04-24T01:17:34;13.70;95.20
68691;DHT22;55675;49.588;8.640;2023-04-24T01:20:00;13.70;95.20
68691;DHT22;55675;49.588;8.640;2023-04-24T01:22:26;13.70;95.10
68691;DHT22;55675;49.588;8.640;2023-04-24T01:24:52;13.70;95.30
68691;DHT22;55675;49.588;8.640;2023-04-24T01:27:18;13.70;95.00
68691;DHT22;55675;49.588;8.640;2023-04-24T01:29:44;13.60;94.90
68691;DHT22;55675;49.588;8.640;2023-04-24T01:32:10;13.60;95.10
68691;DHT22;55675;49.588;8.640;2023-04-24T01:34:35;13.60;95.00
68691;DHT22;55675;49.588;8.640;2023-04-24T01:37:01;13.60;94.90
68691;DHT22;55675;49.588;8.640;2023-04-24T01:39:26;13.60;94.90
68691;DHT22;55675;49.588;8.640;2023-04-24T01:41:54;13.60;94.90
68691;DHT22;55675;49.588;8.640;2023-04-24T01:44:19;13.70;94.90
68691;DHT22;55675;49.588;8.640;2023-04-24T01:46:45;13.60;94.60
68691;DHT22;55675;49.588;8.640;2023-04-24T01:49:10;13.60;94.70
68691;DHT22;55675;49.588;8.640;2023-04-24T01:51:36;13.60;94.70
68691;DHT22;55675;49.588;8.640;2023-04-24T01:54:01;13.60;94.80
68691;DHT22;55675;49.588;8.640;2023-04-24T01:56:28;13.60;94.70
68691;DHT22;55675;49.588;8.640;2023-04-24T01:58:54;13.60;94.90
68691;DHT22;55675;49.588;8.640;2023-04-24T02:01:20;13.60;94.80
68691;DHT22;55675;49.588;8.640;2023-04-24T02:03:46;13.60;95.00
68691;DHT22;55675;49.588;8.640;2023-04-24T02:06:11;13.60;94.80
68691;DHT22;55675;49.588;8.640;2023-04-24T02:08:37;13.60;94.70
68691;DHT22;55675;49.588;8.640;2023-04-24T02:11:02;13.60;94.80
68691;DHT22;55675;49.588;8.640;2023-04-24T02:13:28;13.60;94.80
68691;DHT22;55675;49.588;8.640;2023-04-24T02:15:53;13.60;94.80
68691;DHT22;55675;49.588;8.640;2023-04-24T02:18:19;13.60;94.80
68691;DHT22;55675;49.588;8.640;2023-04-24T02:20:45;13.60;94.70
68691;DHT22;55675;49.588;8.640;2023-04-24T02:23:10;13.50;94.70
68691;DHT22;55675;49.588;8.640;2023-04-24T02:25:36;13.60;94.70
68691;DHT22;55675;49.588;8.640;2023-04-24T02:28:01;13.50;94.80
68691;DHT22;55675;49.588;8.640;2023-04-24T02:30:28;13.60;94.80
68691;DHT22;55675;49.588;8.640;2023-04-24T02:32:53;13.60;95.00
68691;DHT22;55675;49.588;8.640;2023-04-24T02:35:19;13.60;95.00
68691;DHT22;55675;49.588;8.640;2023-04-24T02:37:44;13.60;95.00
68691;DHT22;55675;49.588;8.640;2023-04-24T02:40:10;13.60;95.10
68691;DHT22;55675;49.588;8.640;2023-04-24T02:42:35;13.60;95.30
68691;DHT22;55675;49.588;8.640;2023-04-24T02:45:01;13.60;95.50
68691;DHT22;55675;49.588;8.640;2023-04-24T02:47:26;13.60;95.60
68691;DHT22;55675;49.588;8.640;2023-04-24T02:49:51;13.70;95.80
68691;DHT22;55675;49.588;8.640;2023-04-24T02:52:17;13.60;96.00
68691;DHT22;55675;49.588;8.640;2023-04-24T02:54:42;13.60;96.10
68691;DHT22;55675;49.588;8.640;2023-04-24T02:57:08;13.40;96.50
68691;DHT22;55675;49.588;8.640;2023-04-24T02:59:33;13.30;97.00
68691;DHT22;55675;49.588;8.640;2023-04-24T03:01:59;13.20;97.10
68691;DHT22;55675;49.588;8.640;2023-04-24T03:04:24;13.10;97.30
68691;DHT22;55675;49.588;8.640;2023-04-24T03:06:50;13.10;97.60
68691;DHT22;55675;49.588;8.640;2023-04-24T03:09:18;13.10;97.80
68691;DHT22;55675;49.588;8.640;2023-04-24T03:11:43;12.90;97.70
68691;DHT22;55675;49.588;8.640;2023-04-24T03:14:09;13.00;97.30
68691;DHT22;55675;49.588;8.640;2023-04-24T03:16:34;13.00;97.20
68691;DHT22;55675;49.588;8.640;2023-04-24T03:19:00;12.90;97.10
68691;DHT22;55675;49.588;8.640;2023-04-24T03:21:25;12.90;96.90
68691;DHT22;55675;49.588;8.640;2023-04-24T03:23:51;12.90;97.00
68691;DHT22;55675;49.588;8.640;2023-04-24T03:26:17;12.90;97.00
68691;DHT22;55675;49.588;8.640;2023-04-24T03:28:42;13.00;97.10
68691;DHT22;55675;49.588;8.640;2023-04-24T03:31:08;13.00;97.10
68691;DHT22;55675;49.588;8.640;2023-04-24T03:33:33;13.00;97.00
68691;DHT22;55675;49.588;8.640;2023-04-24T03:35:59;13.00;97.10
68691;DHT22;55675;49.588;8.640;2023-04-24T03:38:24;13.00;97.00
68691;DHT22;55675;49.588;8.640;2023-04-24T03:40:50;13.00;96.80
68691;DHT22;55675;49.588;8.640;2023-04-24T03:43:15;13.00;96.80
68691;DHT22;55675;49.588;8.640;2023-04-24T03:45:40;13.00;96.80
68691;DHT22;55675;49.588;8.640;2023-04-24T03:48:06;13.00;96.80
68691;DHT22;55675;49.588;8.640;2023-04-24T03:50:32;13.00;96.60
68691;DHT22;55675;49.588;8.640;2023-04-24T03:52:58;13.00;96.60
68691;DHT22;55675;49.588;8.640;2023-04-24T03:55:23;13.00;96.60
68691;DHT22;55675;49.588;8.640;2023-04-24T03:57:49;13.00;96.50
68691;DHT22;55675;49.588;8.640;2023-04-24T04:00:14;12.90;96.50
68691;DHT22;55675;49.588;8.640;2023-04-24T04:02:40;12.90;96.40
68691;DHT22;55675;49.588;8.640;2023-04-24T04:05:05;12.80;96.30
68691;DHT22;55675;49.588;8.640;2023-04-24T04:07:31;12.70;96.00
68691;DHT22;55675;49.588;8.640;2023-04-24T04:09:56;12.70;95.50
68691;DHT22;55675;49.588;8.640;2023-04-24T04:12:22;12.60;95.30
68691;DHT22;55675;49.588;8.640;2023-04-24T04:14:47;12.40;94.90
68691;DHT22;55675;49.588;8.640;2023-04-24T04:17:13;12.30;95.10
68691;DHT22;55675;49.588;8.640;2023-04-24T04:19:38;12.20;95.40
68691;DHT22;55675;49.588;8.640;2023-04-24T04:22:04;12.00;95.20
68691;DHT22;55675;49.588;8.640;2023-04-24T04:24:29;11.90;95.20
68691;DHT22;55675;49.588;8.640;2023-04-24T04:26:55;11.80;95.30
68691;DHT22;55675;49.588;8.640;2023-04-24T04:29:23;11.70;95.40
68691;DHT22;55675;49.588;8.640;2023-04-24T04:31:49;11.60;95.50
68691;DHT22;55675;49.588;8.640;2023-04-24T04:34:14;11.50;95.70
68691;DHT22;55675;49.588;8.640;2023-04-24T04:36:40;11.40;95.50
68691;DHT22;55675;49.588;8.640;2023-04-24T04:39:06;11.40;95.50
68691;DHT22;55675;49.588;8.640;2023-04-24T04:41:32;11.30;95.50
68691;DHT22;55675;49.588;8.640;2023-04-24T04:44:00;11.30;95.60
68691;DHT22;55675;49.588;8.640;2023-04-24T04:46:25;11.20;95.50
68691;DHT22;55675;49.588;8.640;2023-04-24T04:48:52;11.20;95.60
68691;DHT22;55675;49.588;8.640;2023-04-24T04:51:17;11.20;95.60
68691;DHT22;55675;49.588;8.640;2023-04-24T04:53:43;11.30;95.70
68691;DHT22;55675;49.588;8.640;2023-04-24T04:56:08;11.30;95.70
68691;DHT22;55675;49.588;8.640;2023-04-24T04:58:33;11.30;95.70
68691;DHT22;55675;49.588;8.640;2023-04-24T05:00:59;11.30;95.70
68691;DHT22;55675;49.588;8.640;2023-04-24T05:03:24;11.30;95.60
68691;DHT22;55675;49.588;8.640;2023-04-24T05:05:50;11.40;95.70
68691;DHT22;55675;49.588;8.640;2023-04-24T05:08:16;11.40;95.70
68691;DHT22;55675;49.588;8.640;2023-04-24T05:10:41;11.40;95.70
68691;DHT22;55675;49.588;8.640;2023-04-24T05:13:06;11.40;95.70
68691;DHT22;55675;49.588;8.640;2023-04-24T05:15:32;11.50;95.70
68691;DHT22;55675;49.588;8.640;2023-04-24T05:17:57;11.50;95.70
68691;DHT22;55675;49.588;8.640;2023-04-24T05:20:23;11.60;95.70
68691;DHT22;55675;49.588;8.640;2023-04-24T05:22:48;11.60;95.70
68691;DHT22;55675;49.588;8.640;2023-04-24T05:25:14;11.80;95.70
68691;DHT22;55675;49.588;8.640;2023-04-24T05:27:39;11.90;95.60
68691;DHT22;55675;49.588;8.640;2023-04-24T05:30:05;12.10;95.40
68691;DHT22;55675;49.588;8.640;2023-04-24T05:32:31;12.20;94.80
68691;DHT22;55675;49.588;8.640;2023-04-24T05:34:56;12.20;94.30
68691;DHT22;55675;49.588;8.640;2023-04-24T05:37:22;12.20;94.40
68691;DHT22;55675;49.588;8.640;2023-04-24T05:39:47;12.20;94.70
68691;DHT22;55675;49.588;8.640;2023-04-24T05:42:13;12.30;94.70
68691;DHT22;55675;49.588;8.640;2023-04-24T05:44:38;12.30;94.50
68691;DHT22;55675;49.588;8.640;2023-04-24T05:47:03;12.30;94.60
68691;DHT22;55675;49.588;8.640;2023-04-24T05:49:29;12.30;94.90
68691;DHT22;55675;49.588;8.640;2023-04-24T05:51:54;12.40;95.00
68691;DHT22;55675;49.588;8.640;2023-04-24T05:54:20;12.40;94.80
68691;DHT22;55675;49.588;8.640;2023-04-24T05:56:45;12.50;94.90
68691;DHT22;55675;49.588;8.640;2023-04-24T05:59:11;12.50;94.50
68691;DHT22;55675;49.588;8.640;2023-04-24T06:01:37;12.60;94.50
68691;DHT22;55675;49.588;8.640;2023-04-24T06:04:03;12.70;94.50
68691;DHT22;55675;49.588;8.640;2023-04-24T06:06:29;12.80;94.50
68691;DHT22;55675;49.588;8.640;2023-04-24T06:08:54;12.90;94.40
68691;DHT22;55675;49.588;8.640;2023-04-24T06:11:20;13.00;94.40
68691;DHT22;55675;49.588;8.640;2023-04-24T06:13:46;13.10;94.40
68691;DHT22;55675;49.588;8.640;2023-04-24T06:16:11;13.20;94.40
68691;DHT22;55675;49.588;8.640;2023-04-24T06:18:37;13.30;94.20
68691;DHT22;55675;49.588;8.640;2023-04-24T06:21:03;13.30;94.00
68691;DHT22;55675;49.588;8.640;2023-04-24T06:23:28;13.40;93.30
68691;DHT22;55675;49.588;8.640;2023-04-24T06:25:54;13.30;89.60
68691;DHT22;55675;49.588;8.640;2023-04-24T06:28:20;13.20;88.80
68691;DHT22;55675;49.588;8.640;2023-04-24T06:30:45;13.10;87.10
68691;DHT22;55675;49.588;8.640;2023-04-24T06:33:10;13.00;88.50
68691;DHT22;55675;49.588;8.640;2023-04-24T06:35:36;12.90;87.30
68691;DHT22;55675;49.588;8.640;2023-04-24T06:38:03;12.90;89.10
68691;DHT22;55675;49.588;8.640;2023-04-24T06:40:28;12.90;89.00
68691;DHT22;55675;49.588;8.640;2023-04-24T06:42:54;12.90;88.30
68691;DHT22;55675;49.588;8.640;2023-04-24T06:45:19;12.90;89.10
68691;DHT22;55675;49.588;8.640;2023-04-24T06:47:45;12.80;89.00
68691;DHT22;55675;49.588;8.640;2023-04-24T06:50:10;12.80;89.20
68691;DHT22;55675;49.588;8.640;2023-04-24T06:52:36;12.70;90.20
68691;DHT22;55675;49.588;8.640;2023-04-24T06:55:02;12.70;90.10
68691;DHT22;55675;49.588;8.640;2023-04-24T06:57:28;12.60;90.30
68691;DHT22;55675;49.588;8.640;2023-04-24T06:59:53;12.70;90.90
68691;DHT22;55675;49.588;8.640;2023-04-24T07:02:19;12.70;89.70
68691;DHT22;55675;49.588;8.640;2023-04-24T07:04:45;12.70;87.90
68691;DHT22;55675;49.588;8.640;2023-04-24T07:07:13;12.60;87.80
68691;DHT22;55675;49.588;8.640;2023-04-24T07:09:39;12.60;88.10
68691;DHT22;55675;49.588;8.640;2023-04-24T07:12:10;12.70;89.80
68691;DHT22;55675;49.588;8.640;2023-04-24T07:14:36;12.90;90.50
68691;DHT22;55675;49.588;8.640;2023-04-24T07:17:02;13.10;90.60
68691;DHT22;55675;49.588;8.640;2023-04-24T07:19:27;13.20;90.60
68691;DHT22;55675;49.588;8.640;2023-04-24T07:21:53;13.30;90.50
68691;DHT22;55675;49.588;8.640;2023-04-24T07:24:20;13.40;90.70
68691;DHT22;55675;49.588;8.640;2023-04-24T07:26:46;13.30;90.70
68691;DHT22;55675;49.588;8.640;2023-04-24T07:29:11;13.30;90.30
68691;DHT22;55675;49.588;8.640;2023-04-24T07:31:37;13.10;90.70
68691;DHT22;55675;49.588;8.640;2023-04-24T07:34:03;13.00;91.20
68691;DHT22;55675;49.588;8.640;2023-04-24T07:36:28;13.10;90.20
68691;DHT22;55675;49.588;8.640;2023-04-24T07:38:54;13.20;90.70
68691;DHT22;55675;49.588;8.640;2023-04-24T07:41:19;13.20;90.30
68691;DHT22;55675;49.588;8.640;2023-04-24T07:43:45;13.30;89.40
68691;DHT22;55675;49.588;8.640;2023-04-24T07:46:11;13.50;89.60
68691;DHT22;55675;49.588;8.640;2023-04-24T07:48:36;13.70;90.20
68691;DHT22;55675;49.588;8.640;2023-04-24T07:51:02;14.00;90.40
68691;DHT22;55675;49.588;8.640;2023-04-24T07:53:27;14.20;89.20
68691;DHT22;55675;49.588;8.640;2023-04-24T07:55:54;14.30;87.60
68691;DHT22;55675;49.588;8.640;2023-04-24T07:58:20;14.50;87.50
68691;DHT22;55675;49.588;8.640;2023-04-24T08:00:45;14.50;84.60
68691;DHT22;55675;49.588;8.640;2023-04-24T08:03:11;14.50;83.30
68691;DHT22;55675;49.588;8.640;2023-04-24T08:05:37;14.70;84.10
68691;DHT22;55675;49.588;8.640;2023-04-24T08:08:03;14.90;83.80
68691;DHT22;55675;49.588;8.640;2023-04-24T08:10:28;15.20;82.00
68691;DHT22;55675;49.588;8.640;2023-04-24T08:12:54;15.30;80.80
68691;DHT22;55675;49.588;8.640;2023-04-24T08:15:20;15.20;81.80
68691;DHT22;55675;49.588;8.640;2023-04-24T08:17:46;15.10;79.70
68691;DHT22;55675;49.588;8.640;2023-04-24T08:20:11;14.90;78.90
68691;DHT22;55675;49.588;8.640;2023-04-24T08:22:40;14.50;74.80
68691;DHT22;55675;49.588;8.640;2023-04-24T08:25:06;14.30;75.30
68691;DHT22;55675;49.588;8.640;2023-04-24T08:27:32;14.00;75.60
68691;DHT22;55675;49.588;8.640;2023-04-24T08:29:57;13.90;75.40
68691;DHT22;55675;49.588;8.640;2023-04-24T08:32:24;14.00;74.90
68691;DHT22;55675;49.588;8.640;2023-04-24T08:34:49;13.80;74.10
68691;DHT22;55675;49.588;8.640;2023-04-24T08:37:15;13.60;75.30
68691;DHT22;55675;49.588;8.640;2023-04-24T08:39:40;13.50;75.60
68691;DHT22;55675;49.588;8.640;2023-04-24T08:42:07;13.40;76.50
68691;DHT22;55675;49.588;8.640;2023-04-24T08:44:34;13.40;75.30
68691;DHT22;55675;49.588;8.640;2023-04-24T08:47:04;13.40;74.80
68691;DHT22;55675;49.588;8.640;2023-04-24T08:49:29;13.40;76.80
68691;DHT22;55675;49.588;8.640;2023-04-24T08:51:55;13.60;76.20
68691;DHT22;55675;49.588;8.640;2023-04-24T08:54:21;13.70;74.60
68691;DHT22;55675;49.588;8.640;2023-04-24T08:56:47;13.80;73.00
68691;DHT22;55675;49.588;8.640;2023-04-24T08:59:14;13.90;72.70
68691;DHT22;55675;49.588;8.640;2023-04-24T09:01:40;13.90;70.80
68691;DHT22;55675;49.588;8.640;2023-04-24T09:04:05;13.80;72.50
68691;DHT22;55675;49.588;8.640;2023-04-24T09:06:31;13.90;74.20
68691;DHT22;55675;49.588;8.640;2023-04-24T09:08:59;13.90;73.70
68691;DHT22;55675;49.588;8.640;2023-04-24T09:11:25;13.90;72.00
68691;DHT22;55675;49.588;8.640;2023-04-24T09:13:51;14.00;70.00
68691;DHT22;55675;49.588;8.640;2023-04-24T09:16:16;13.90;69.50
68691;DHT22;55675;49.588;8.640;2023-04-24T09:18:42;13.90;71.20
68691;DHT22;55675;49.588;8.640;2023-04-24T09:21:08;13.90;70.70
68691;DHT22;55675;49.588;8.640;2023-04-24T09:23:34;14.00;71.60
68691;DHT22;55675;49.588;8.640;2023-04-24T09:26:00;14.00;71.10
68691;DHT22;55675;49.588;8.640;2023-04-24T09:28:27;14.00;72.70
68691;DHT22;55675;49.588;8.640;2023-04-24T09:31:03;14.00;73.10
68691;DHT22;55675;49.588;8.640;2023-04-24T09:33:29;13.90;72.50
68691;DHT22;55675;49.588;8.640;2023-04-24T09:35:54;13.90;73.60
68691;DHT22;55675;49.588;8.640;2023-04-24T09:38:20;14.00;75.80
68691;DHT22;55675;49.588;8.640;2023-04-24T09:40:55;14.10;76.70
68691;DHT22;55675;49.588;8.640;2023-04-24T09:43:23;14.10;75.70
68691;DHT22;55675;49.588;8.640;2023-04-24T09:45:51;14.00;75.60
68691;DHT22;55675;49.588;8.640;2023-04-24T09:48:20;14.00;75.70
68691;DHT22;55675;49.588;8.640;2023-04-24T09:50:54;14.00;74.20
68691;DHT22;55675;49.588;8.640;2023-04-24T09:53:23;13.90;74.40
68691;DHT22;55675;49.588;8.640;2023-04-24T09:55:49;13.80;73.60
68691;DHT22;55675;49.588;8.640;2023-04-24T09:58:15;13.70;74.20
68691;DHT22;55675;49.588;8.640;2023-04-24T10:00:41;13.70;75.00
68691;DHT22;55675;49.588;8.640;2023-04-24T10:03:06;13.60;75.20
68691;DHT22;55675;49.588;8.640;2023-04-24T10:05:32;13.40;74.30
68691;DHT22;55675;49.588;8.640;2023-04-24T10:08:04;13.40;76.00
68691;DHT22;55675;49.588;8.640;2023-04-24T10:10:31;13.50;76.30
68691;DHT22;55675;49.588;8.640;2023-04-24T10:12:56;13.60;77.10
68691;DHT22;55675;49.588;8.640;2023-04-24T10:15:22;13.60;75.50
68691;DHT22;55675;49.588;8.640;2023-04-24T10:17:48;13.60;75.50
68691;DHT22;55675;49.588;8.640;2023-04-24T10:20:21;13.70;76.10
68691;DHT22;55675;49.588;8.640;2023-04-24T10:22:47;13.80;75.60
68691;DHT22;55675;49.588;8.640;2023-04-24T10:25:16;14.00;75.30
68691;DHT22;55675;49.588;8.640;2023-04-24T10:27:41;14.30;75.20
68691;DHT22;55675;49.588;8.640;2023-04-24T10:30:07;14.50;73.20
68691;DHT22;55675;49.588;8.640;2023-04-24T10:32:33;14.70;74.00
68691;DHT22;55675;49.588;8.640;2023-04-24T10:34:58;14.90;71.80
68691;DHT22;55675;49.588;8.640;2023-04-24T10:37:24;15.10;70.10
68691;DHT22;55675;49.588;8.640;2023-04-24T10:39:50;15.20;71.10
68691;DHT22;55675;49.588;8.640;2023-04-24T10:42:16;15.40;71.20
68691;DHT22;55675;49.588;8.640;2023-04-24T10:44:42;15.10;68.60
68691;DHT22;55675;49.588;8.640;2023-04-24T10:47:12;14.90;68.90
68691;DHT22;55675;49.588;8.640;2023-04-24T10:49:38;14.60;70.00
68691;DHT22;55675;49.588;8.640;2023-04-24T10:52:03;14.50;70.90
68691;DHT22;55675;49.588;8.640;2023-04-24T10:54:35;14.20;70.60
68691;DHT22;55675;49.588;8.640;2023-04-24T10:59:46;14.10;73.90
68691;DHT22;55675;49.588;8.640;2023-04-24T11:02:14;13.90;73.40
68691;DHT22;55675;49.588;8.640;2023-04-24T11:04:40;13.80;74.20
68691;DHT22;55675;49.588;8.640;2023-04-24T11:07:08;13.80;74.90
68691;DHT22;55675;49.588;8.640;2023-04-24T11:09:34;13.80;75.90
68691;DHT22;55675;49.588;8.640;2023-04-24T11:12:06;13.80;75.20
68691;DHT22;55675;49.588;8.640;2023-04-24T11:14:59;13.70;75.60
68691;DHT22;55675;49.588;8.640;2023-04-24T11:17:28;13.70;76.60
68691;DHT22;55675;49.588;8.640;2023-04-24T11:19:54;13.60;76.90
68691;DHT22;55675;49.588;8.640;2023-04-24T11:22:25;13.60;76.50
68691;DHT22;55675;49.588;8.640;2023-04-24T11:24:53;13.70;78.10
68691;DHT22;55675;49.588;8.640;2023-04-24T11:27:19;13.70;77.50
68691;DHT22;55675;49.588;8.640;2023-04-24T11:34:55;13.70;73.80
68691;DHT22;55675;49.588;8.640;2023-04-24T11:37:22;13.80;74.50
68691;DHT22;55675;49.588;8.640;2023-04-24T11:39:49;13.90;72.20
68691;DHT22;55675;49.588;8.640;2023-04-24T11:42:15;13.90;71.80
68691;DHT22;55675;49.588;8.640;2023-04-24T11:44:41;13.90;72.90
68691;DHT22;55675;49.588;8.640;2023-04-24T11:47:07;14.00;73.60
68691;DHT22;55675;49.588;8.640;2023-04-24T11:49:33;14.10;72.70
68691;DHT22;55675;49.588;8.640;2023-04-24T11:52:02;14.10;72.10
68691;DHT22;55675;49.588;8.640;2023-04-24T11:54:27;14.10;72.20
68691;DHT22;55675;49.588;8.640;2023-04-24T11:56:53;14.10;73.20
68691;DHT22;55675;49.588;8.640;2023-04-24T11:59:18;14.20;73.70
68691;DHT22;55675;49.588;8.640;2023-04-24T12:01:44;14.40;72.50
68691;DHT22;55675;49.588;8.640;2023-04-24T12:04:10;14.70;72.50
68691;DHT22;55675;49.588;8.640;2023-04-24T12:06:36;14.90;70.80
68691;DHT22;55675;49.588;8.640;2023-04-24T12:09:01;15.20;69.20
68691;DHT22;55675;49.588;8.640;2023-04-24T12:11:27;15.40;66.80
68691;DHT22;55675;49.588;8.640;2023-04-24T12:13:53;15.60;67.20
68691;DHT22;55675;49.588;8.640;2023-04-24T12:16:18;15.90;66.00
68691;DHT22;55675;49.588;8.640;2023-04-24T12:18:44;16.10;64.60
68691;DHT22;55675;49.588;8.640;2023-04-24T12:23:43;16.60;64.10
68691;DHT22;55675;49.588;8.640;2023-04-24T12:26:08;16.60;62.00
68691;DHT22;55675;49.588;8.640;2023-04-24T12:28:37;16.60;62.50
68691;DHT22;55675;49.588;8.640;2023-04-24T12:31:02;16.30;59.90
68691;DHT22;55675;49.588;8.640;2023-04-24T12:33:31;16.20;63.00
68691;DHT22;55675;49.588;8.640;2023-04-24T12:35:57;16.00;63.20
68691;DHT22;55675;49.588;8.640;2023-04-24T12:38:23;15.70;62.40
68691;DHT22;55675;49.588;8.640;2023-04-24T12:40:58;15.30;64.20
68691;DHT22;55675;49.588;8.640;2023-04-24T12:43:26;15.20;64.80
68691;DHT22;55675;49.588;8.640;2023-04-24T12:45:51;15.10;66.20
68691;DHT22;55675;49.588;8.640;2023-04-24T12:48:17;15.10;67.10
68691;DHT22;55675;49.588;8.640;2023-04-24T12:50:43;15.00;66.00
68691;DHT22;55675;49.588;8.640;2023-04-24T12:53:08;15.10;67.50
68691;DHT22;55675;49.588;8.640;2023-04-24T12:55:34;15.30;65.80
68691;DHT22;55675;49.588;8.640;2023-04-24T12:58:00;15.40;65.80
68691;DHT22;55675;49.588;8.640;2023-04-24T13:00:27;15.60;65.70
68691;DHT22;55675;49.588;8.640;2023-04-24T13:02:52;15.70;65.50
68691;DHT22;55675;49.588;8.640;2023-04-24T13:05:18;15.60;66.20
68691;DHT22;55675;49.588;8.640;2023-04-24T13:07:43;15.60;66.10
68691;DHT22;55675;49.588;8.640;2023-04-24T13:10:08;15.50;65.90
68691;DHT22;55675;49.588;8.640;2023-04-24T13:12:34;15.40;67.20
68691;DHT22;55675;49.588;8.640;2023-04-24T13:15:00;15.40;65.50
68691;DHT22;55675;49.588;8.640;2023-04-24T13:17:25;15.10;65.40
68691;DHT22;55675;49.588;8.640;2023-04-24T13:19:51;15.00;66.50
68691;DHT22;55675;49.588;8.640;2023-04-24T13:22:17;14.90;67.20
68691;DHT22;55675;49.588;8.640;2023-04-24T13:24:44;14.80;67.70
68691;DHT22;55675;49.588;8.640;2023-04-24T13:27:09;14.90;66.40
68691;DHT22;55675;49.588;8.640;2023-04-24T13:29:35;15.00;64.40
68691;DHT22;55675;49.588;8.640;2023-04-24T13:32:01;15.40;63.20
68691;DHT22;55675;49.588;8.640;2023-04-24T13:34:26;15.80;63.40
68691;DHT22;55675;49.588;8.640;2023-04-24T13:36:52;16.30;60.90
68691;DHT22;55675;49.588;8.640;2023-04-24T13:39:18;16.80;60.70
68691;DHT22;55675;49.588;8.640;2023-04-24T13:41:43;17.20;59.50
68691;DHT22;55675;49.588;8.640;2023-04-24T13:44:10;17.70;60.60
68691;DHT22;55675;49.588;8.640;2023-04-24T13:46:36;17.90;58.40
68691;DHT22;55675;49.588;8.640;2023-04-24T13:49:01;17.90;57.90
68691;DHT22;55675;49.588;8.640;2023-04-24T13:51:27;17.60;56.20
68691;DHT22;55675;49.588;8.640;2023-04-24T13:53:53;17.10;55.40
68691;DHT22;55675;49.588;8.640;2023-04-24T13:56:18;16.80;57.20
68691;DHT22;55675;49.588;8.640;2023-04-24T13:58:44;16.60;59.30
68691;DHT22;55675;49.588;8.640;2023-04-24T14:01:09;16.50;59.20
68691;DHT22;55675;49.588;8.640;2023-04-24T14:03:36;16.20;57.60
68691;DHT22;55675;49.588;8.640;2023-04-24T14:06:02;15.90;58.50
68691;DHT22;55675;49.588;8.640;2023-04-24T14:08:28;15.70;59.90
68691;DHT22;55675;49.588;8.640;2023-04-24T14:10:53;15.60;61.00
68691;DHT22;55675;49.588;8.640;2023-04-24T14:13:18;15.50;61.70
68691;DHT22;55675;49.588;8.640;2023-04-24T14:15:44;15.40;61.00
68691;DHT22;55675;49.588;8.640;2023-04-24T14:18:10;15.40;63.00
68691;DHT22;55675;49.588;8.640;2023-04-24T14:20:35;15.40;62.20
68691;DHT22;55675;49.588;8.640;2023-04-24T14:23:01;15.30;61.00
68691;DHT22;55675;49.588;8.640;2023-04-24T14:25:26;15.20;60.80
68691;DHT22;55675;49.588;8.640;2023-04-24T14:27:52;15.10;61.40
68691;DHT22;55675;49.588;8.640;2023-04-24T14:30:18;14.90;62.60
68691;DHT22;55675;49.588;8.640;2023-04-24T14:32:44;14.90;62.80
68691;DHT22;55675;49.588;8.640;2023-04-24T14:35:09;14.90;62.60
68691;DHT22;55675;49.588;8.640;2023-04-24T14:37:35;15.00;61.80
68691;DHT22;55675;49.588;8.640;2023-04-24T14:40:01;15.10;61.80
68691;DHT22;55675;49.588;8.640;2023-04-24T14:42:27;15.30;61.40
68691;DHT22;55675;49.588;8.640;2023-04-24T14:44:54;15.70;60.50
68691;DHT22;55675;49.588;8.640;2023-04-24T14:47:19;16.10;61.40
68691;DHT22;55675;49.588;8.640;2023-04-24T14:49:47;16.30;59.90
68691;DHT22;55675;49.588;8.640;2023-04-24T14:52:13;16.40;60.40
68691;DHT22;55675;49.588;8.640;2023-04-24T14:54:38;16.70;59.90
68691;DHT22;55675;49.588;8.640;2023-04-24T14:57:03;17.10;58.40
68691;DHT22;55675;49.588;8.640;2023-04-24T14:59:29;17.00;56.80
68691;DHT22;55675;49.588;8.640;2023-04-24T15:01:56;16.80;57.70
68691;DHT22;55675;49.588;8.640;2023-04-24T15:04:25;16.50;59.10
68691;DHT22;55675;49.588;8.640;2023-04-24T15:06:51;16.30;58.40
68691;DHT22;55675;49.588;8.640;2023-04-24T15:09:18;16.10;59.40
68691;DHT22;55675;49.588;8.640;2023-04-24T15:11:44;16.20;60.50
68691;DHT22;55675;49.588;8.640;2023-04-24T15:14:10;16.30;59.80
68691;DHT22;55675;49.588;8.640;2023-04-24T15:16:35;16.20;59.30
68691;DHT22;55675;49.588;8.640;2023-04-24T15:19:00;16.30;60.40
68691;DHT22;55675;49.588;8.640;2023-04-24T15:21:26;16.60;59.10
68691;DHT22;55675;49.588;8.640;2023-04-24T15:23:52;16.50;59.30
68691;DHT22;55675;49.588;8.640;2023-04-24T15:26:17;16.30;59.60
68691;DHT22;55675;49.588;8.640;2023-04-24T15:28:43;16.10;61.40
68691;DHT22;55675;49.588;8.640;2023-04-24T15:31:08;15.90;62.90
68691;DHT22;55675;49.588;8.640;2023-04-24T15:33:34;15.70;64.40